Time;durP1;ratioP1;P1;durP2;ratioP2;P2;SDS_P1;SDS_P2;PMS_P1;PMS_P2;Temp;Humidity;BMP_temperature;BMP_pressure;BME280_temperature;BME280_humidity;BME280_pressure;Samples;Min_cycle;Max_cycle;Signal;HPM_P1;HPM_P2
2021/12/02 00:00:05;;;;;;;1.40;1.30;;;;;;;6.49;81.09;99277.50;5135551;28;20031;-82
2021/12/02 00:02:37;;;;;;;1.45;1.35;;;;;;;6.51;81.08;99273.94;5144845;28;20035;-80
2021/12/02 00:05:09;;;;;;;0.60;0.60;;;;;;;6.59;80.88;99284.94;5161965;28;20045;-81
2021/12/02 00:07:39;;;;;;;0.65;0.65;;;;;;;6.49;80.43;99288.75;5169838;28;20037;-80
2021/12/02 00:10:10;;;;;;;0.60;0.60;;;;;;;6.36;80.86;99288.34;5168469;28;20054;-83
2021/12/02 00:12:40;;;;;;;1.38;1.33;;;;;;;6.44;80.94;99285.47;5147651;28;20041;-81
2021/12/02 00:15:21;;;;;;;0.68;0.68;;;;;;;6.09;81.38;99290.06;5157837;28;20093;-80
2021/12/02 00:18:08;;;;;;;0.65;0.65;;;;;;;6.25;80.89;99293.03;5145564;28;20031;-81
2021/12/02 00:23:41;;;;;;;1.55;1.38;;;;;;;6.04;81.53;99284.16;5161361;28;20192;-81
2021/12/02 00:26:15;;;;;;;1.42;1.33;;;;;;;6.34;81.69;99295.34;5164950;28;20135;-81
2021/12/02 00:28:52;;;;;;;0.85;0.85;;;;;;;6.19;81.48;99286.25;5137658;28;20030;-82
2021/12/02 00:31:25;;;;;;;1.05;0.93;;;;;;;6.07;81.64;99299.69;5144701;28;20029;-82
2021/12/02 00:34:00;;;;;;;0.52;0.52;;;;;;;5.93;82.16;99289.66;5148638;28;20345;-82
2021/12/02 00:36:33;;;;;;;0.45;0.45;;;;;;;6.02;82.40;99297.22;5158150;28;20041;-82
2021/12/02 00:39:10;;;;;;;0.50;0.50;;;;;;;6.17;82.10;99297.63;5159834;28;20038;-81
2021/12/02 00:41:42;;;;;;;1.02;1.02;;;;;;;6.20;81.49;99305.38;5126507;28;20031;-81
2021/12/02 00:44:13;;;;;;;0.45;0.45;;;;;;;5.99;82.26;99295.53;5158077;28;20042;-83
2021/12/02 00:46:45;;;;;;;1.48;1.05;;;;;;;6.01;82.69;99305.06;5122619;28;20030;-81
2021/12/02 00:49:18;;;;;;;0.55;0.55;;;;;;;5.98;82.46;99296.44;5148076;28;20101;-81
2021/12/02 00:51:55;;;;;;;0.70;0.70;;;;;;;5.87;83.39;99301.13;5124805;28;20034;-81
2021/12/02 00:54:27;;;;;;;2.65;1.35;;;;;;;5.83;83.78;99304.69;5178196;28;20038;-82
2021/12/02 00:57:02;;;;;;;0.57;0.57;;;;;;;6.17;82.35;99310.66;5146017;28;20065;-81
2021/12/02 00:59:33;;;;;;;0.70;0.70;;;;;;;5.95;82.77;99304.34;5161584;28;20568;-80
2021/12/02 01:02:04;;;;;;;0.50;0.50;;;;;;;5.93;82.68;99308.72;5143895;28;20025;-82
2021/12/02 01:04:35;;;;;;;0.55;0.55;;;;;;;6.07;82.07;99305.72;5145292;28;20049;-83
2021/12/02 01:07:05;;;;;;;1.10;1.10;;;;;;;5.85;83.13;99305.50;5161650;28;20018;-80
2021/12/02 01:09:36;;;;;;;0.60;0.60;;;;;;;5.80;82.86;99302.19;5125818;28;20421;-82
2021/12/02 01:12:07;;;;;;;0.82;0.82;;;;;;;5.79;83.15;99309.16;5157714;28;20022;-81
2021/12/02 01:14:38;;;;;;;0.55;0.55;;;;;;;5.61;83.79;99310.56;5140188;28;20133;-83
2021/12/02 01:17:08;;;;;;;0.68;0.68;;;;;;;5.70;83.96;99305.97;5138095;28;20038;-82
2021/12/02 01:19:39;;;;;;;0.57;0.57;;;;;;;5.63;83.91;99310.50;5125461;28;20125;-83
2021/12/02 01:22:12;;;;;;;0.65;0.65;;;;;;;5.76;83.27;99318.78;5165845;28;20026;-81
2021/12/02 01:24:48;;;;;;;1.15;1.13;;;;;;;5.79;83.27;99316.13;5132009;28;20054;-81
2021/12/02 01:27:20;;;;;;;0.50;0.50;;;;;;;5.87;82.67;99321.94;5137871;28;20022;-82
2021/12/02 01:29:52;;;;;;;1.00;1.00;;;;;;;5.77;83.31;99323.97;5136154;28;20082;-82
2021/12/02 01:32:24;;;;;;;0.80;0.80;;;;;;;5.67;83.54;99320.78;5122201;28;20065;-82
2021/12/02 01:34:58;;;;;;;1.15;1.15;;;;;;;5.85;82.94;99326.34;5150285;28;20038;-82
2021/12/02 01:37:28;;;;;;;0.60;0.60;;;;;;;6.06;82.31;99321.41;5160304;28;20561;-82
2021/12/02 01:40:00;;;;;;;0.73;0.73;;;;;;;5.93;82.65;99324.34;5141099;28;20045;-82
2021/12/02 01:42:34;;;;;;;0.50;0.50;;;;;;;5.74;82.99;99325.81;5146428;28;20619;-82
2021/12/02 01:45:05;;;;;;;0.52;0.52;;;;;;;5.83;83.22;99312.50;5145499;28;20065;-82
2021/12/02 01:47:43;;;;;;;0.70;0.70;;;;;;;5.97;82.29;99314.69;5159443;28;20046;-81
2021/12/02 01:50:21;;;;;;;0.57;0.57;;;;;;;6.01;81.97;99323.28;5140555;28;20042;-82
2021/12/02 01:53:00;;;;;;;0.70;0.70;;;;;;;5.95;82.37;99327.78;5161947;28;20117;-81
2021/12/02 01:55:34;;;;;;;1.00;1.00;;;;;;;6.11;81.67;99314.31;5155852;28;20042;-83
2021/12/02 01:58:05;;;;;;;0.50;0.50;;;;;;;6.07;82.08;99323.97;5142406;28;20061;-83
2021/12/02 02:00:42;;;;;;;1.17;0.85;;;;;;;5.91;81.86;99320.09;5116888;28;20034;-82
2021/12/02 02:03:15;;;;;;;0.70;0.70;;;;;;;6.04;81.89;99324.03;5131113;28;20100;-83
2021/12/02 02:05:51;;;;;;;1.30;1.13;;;;;;;6.05;81.91;99325.75;5126106;28;20039;-83
2021/12/02 02:08:23;;;;;;;0.60;0.60;;;;;;;6.18;82.34;99331.44;5161824;28;20026;-83
2021/12/02 02:10:54;;;;;;;0.47;0.47;;;;;;;6.19;81.75;99332.31;5153140;28;20122;-83
2021/12/02 02:13:24;;;;;;;0.47;0.47;;;;;;;6.23;81.23;99326.97;5145979;28;20090;-83
2021/12/02 02:15:55;;;;;;;1.02;1.02;;;;;;;6.25;81.21;99330.34;5161431;28;20210;-84
2021/12/02 02:18:28;;;;;;;0.95;0.95;;;;;;;6.07;82.04;99329.19;5160169;28;20477;-83
2021/12/02 02:21:02;;;;;;;;;;;;;;;;;;;;;
2021/12/02 02:23:32;;;;;;;0.52;0.52;;;;;;;6.05;81.52;99320.53;5136799;28;20039;-82
2021/12/02 02:26:04;;;;;;;1.13;1.05;;;;;;;6.07;81.85;99318.75;5141776;28;20023;-82
2021/12/02 02:28:36;;;;;;;1.65;1.27;;;;;;;6.12;82.06;99322.06;5126854;28;20057;-81
2021/12/02 02:31:07;;;;;;;0.57;0.57;;;;;;;6.21;81.38;99320.94;5157281;28;20031;-82
2021/12/02 02:33:39;;;;;;;0.77;0.77;;;;;;;5.85;81.62;99318.53;5126594;28;20042;-81
2021/12/02 02:36:09;;;;;;;0.57;0.57;;;;;;;6.13;81.52;99325.53;5159100;28;20169;-82
2021/12/02 02:38:45;;;;;;;0.70;0.70;;;;;;;6.24;81.22;99315.59;5128661;28;20125;-82
2021/12/02 02:41:20;;;;;;;2.53;1.52;;;;;;;5.86;81.61;99314.19;5131423;28;20022;-82
2021/12/02 02:43:55;;;;;;;0.50;0.50;;;;;;;6.04;81.94;99318.00;5145066;28;20038;-82
2021/12/02 02:46:31;;;;;;;0.80;0.80;;;;;;;5.98;81.88;99308.59;5148616;28;20027;-83
2021/12/02 02:49:05;;;;;;;1.05;1.05;;;;;;;5.94;81.90;99307.00;5130108;28;20037;-82
2021/12/02 02:51:37;;;;;;;0.68;0.68;;;;;;;5.95;81.91;99304.34;5173450;28;20112;-82
2021/12/02 02:54:10;;;;;;;2.65;1.27;;;;;;;6.10;81.94;99307.38;5159482;28;20038;-81
2021/12/02 02:56:50;;;;;;;1.92;1.70;;;;;;;6.02;82.00;99310.25;5143703;28;20061;-81
2021/12/02 03:07:17;;;;;;;1.08;1.08;;;;;;;6.07;81.17;99313.56;5147852;28;20023;-82
2021/12/02 03:10:01;;;;;;;0.88;0.88;;;;;;;5.95;81.42;99311.31;5160546;28;20436;-83
2021/12/02 03:12:38;;;;;;;0.50;0.50;;;;;;;6.20;80.92;99319.22;5178993;28;20023;-82
2021/12/02 03:17:40;;;;;;;0.70;0.70;;;;;;;5.97;81.85;99315.56;5147043;28;20027;-83
2021/12/02 03:20:12;;;;;;;0.60;0.60;;;;;;;5.94;81.19;99320.00;5155990;28;20429;-82
2021/12/02 03:22:43;;;;;;;0.77;0.77;;;;;;;5.90;80.90;99321.00;5148384;28;20064;-83
2021/12/02 03:25:13;;;;;;;0.50;0.50;;;;;;;6.07;81.27;99316.16;5163289;28;20081;-81
2021/12/02 03:27:44;;;;;;;0.40;0.40;;;;;;;6.05;81.26;99324.91;5149311;28;20061;-82
2021/12/02 03:30:15;;;;;;;0.90;0.90;;;;;;;6.10;80.99;99317.81;5163121;28;20540;-81
2021/12/02 03:32:46;;;;;;;1.10;1.10;;;;;;;6.07;80.83;99318.75;5163738;28;20106;-81
2021/12/02 03:35:17;;;;;;;0.40;0.40;;;;;;;5.83;80.67;99315.09;5144171;28;20130;-82
2021/12/02 03:37:47;;;;;;;0.47;0.47;;;;;;;5.78;80.98;99323.09;5159631;28;20046;-82
2021/12/02 03:40:18;;;;;;;0.55;0.55;;;;;;;5.71;80.66;99328.50;5163518;28;20111;-82
2021/12/02 03:42:52;;;;;;;0.50;0.50;;;;;;;5.80;80.61;99336.88;5148880;28;20045;-82
2021/12/02 03:45:24;;;;;;;0.50;0.50;;;;;;;5.68;80.38;99332.91;5139073;28;20050;-82
2021/12/02 03:47:54;;;;;;;0.45;0.45;;;;;;;5.60;80.02;99340.06;5145505;28;20104;-81
2021/12/02 03:50:25;;;;;;;0.60;0.60;;;;;;;5.78;80.35;99333.50;5127647;28;20085;-82
2021/12/02 03:52:55;;;;;;;0.75;0.75;;;;;;;5.65;79.17;99332.13;5125553;28;20045;-83
2021/12/02 03:55:26;;;;;;;0.63;0.63;;;;;;;5.66;79.16;99333.84;5159513;28;20053;-83
2021/12/02 03:57:57;;;;;;;0.52;0.52;;;;;;;5.67;79.11;99330.34;5157530;28;20022;-83
2021/12/02 04:00:27;;;;;;;0.45;0.45;;;;;;;5.75;79.26;99328.38;5176359;28;20053;-83
2021/12/02 04:02:58;;;;;;;0.50;0.50;;;;;;;5.85;79.36;99328.94;5135870;28;20038;-82
2021/12/02 04:05:28;;;;;;;0.50;0.50;;;;;;;5.74;79.92;99337.06;5127394;28;20041;-83
2021/12/02 04:08:02;;;;;;;0.90;0.90;;;;;;;5.71;79.64;99320.69;5153118;28;20460;-83
2021/12/02 04:10:33;;;;;;;0.50;0.50;;;;;;;5.68;79.73;99322.47;5142467;28;20039;-82
2021/12/02 04:13:14;;;;;;;0.55;0.55;;;;;;;5.66;80.37;99326.88;5150426;28;20077;-82
2021/12/02 04:15:54;;;;;;;3.80;3.60;;;;;;;5.64;79.88;99328.69;5169962;28;20043;-83
2021/12/02 04:18:27;;;;;;;0.50;0.50;;;;;;;5.60;80.31;99324.44;5155567;28;20457;-83
2021/12/02 04:20:58;;;;;;;1.02;1.02;;;;;;;5.58;81.24;99328.84;5127191;28;20066;-82
2021/12/02 04:23:28;;;;;;;0.73;0.73;;;;;;;5.68;80.70;99326.84;5161417;28;20128;-81
2021/12/02 04:25:59;;;;;;;0.50;0.50;;;;;;;5.52;81.33;99331.63;5146509;28;20105;-81
2021/12/02 04:28:30;;;;;;;0.50;0.50;;;;;;;5.71;80.43;99325.91;5154448;28;20045;-81
2021/12/02 04:31:01;;;;;;;0.77;0.77;;;;;;;5.56;80.78;99314.19;5140705;28;20041;-82
2021/12/02 04:33:32;;;;;;;0.70;0.70;;;;;;;5.59;81.44;99325.34;5143175;28;20034;-84
2021/12/02 04:36:03;;;;;;;3.92;2.35;;;;;;;5.56;81.10;99328.06;5161440;28;20110;-81
2021/12/02 04:38:34;;;;;;;2.25;2.05;;;;;;;5.56;80.47;99329.78;5154381;28;20022;-81
2021/12/02 04:41:04;;;;;;;0.75;0.75;;;;;;;5.56;80.37;99333.25;5131117;28;20026;-81
2021/12/02 04:43:35;;;;;;;0.80;0.80;;;;;;;5.52;79.91;99329.03;5142707;28;20077;-80
2021/12/02 04:46:06;;;;;;;0.40;0.40;;;;;;;5.62;80.54;99338.28;5155996;28;20090;-83
2021/12/02 04:48:36;;;;;;;0.93;0.93;;;;;;;5.48;80.15;99335.22;5125532;28;20037;-82
2021/12/02 04:51:07;;;;;;;0.60;0.60;;;;;;;5.35;80.92;99340.75;5145442;28;20026;-81
2021/12/02 04:53:40;;;;;;;0.55;0.55;;;;;;;5.53;79.88;99332.50;5153939;28;20038;-83
2021/12/02 04:56:10;;;;;;;0.80;0.80;;;;;;;5.54;80.63;99336.81;5134469;28;20031;-81
2021/12/02 04:58:41;;;;;;;0.40;0.40;;;;;;;5.56;79.34;99333.25;5135561;28;20579;-82
2021/12/02 05:01:12;;;;;;;0.40;0.40;;;;;;;5.39;80.25;99332.88;5149817;28;20030;-82
2021/12/02 05:03:43;;;;;;;10.77;2.80;;;;;;;5.32;79.82;99338.25;5153257;28;20084;-81
2021/12/02 05:06:15;;;;;;;1.27;1.23;;;;;;;5.53;79.78;99337.69;5135334;28;20121;-81
2021/12/02 05:08:45;;;;;;;2.30;1.38;;;;;;;5.65;80.00;99345.13;5140656;28;20092;-81
2021/12/02 05:11:16;;;;;;;0.50;0.50;;;;;;;5.63;80.04;99350.41;5129243;28;20053;-82
2021/12/02 05:13:46;;;;;;;0.88;0.88;;;;;;;5.70;79.66;99350.22;5140281;28;21595;-83
2021/12/02 05:16:17;;;;;;;0.40;0.40;;;;;;;5.64;79.82;99349.50;5149509;28;20031;-82
2021/12/02 05:18:47;;;;;;;0.60;0.60;;;;;;;5.54;79.91;99348.06;5181951;28;20060;-82
2021/12/02 05:21:18;;;;;;;0.50;0.50;;;;;;;5.69;79.48;99359.78;5142862;28;20033;-82
2021/12/02 05:23:53;;;;;;;0.40;0.40;;;;;;;5.58;78.75;99351.41;5148039;28;20034;-83
2021/12/02 05:26:31;;;;;;;1.15;1.15;;;;;;;5.40;78.66;99355.41;5150769;28;20181;-81
2021/12/02 05:29:02;;;;;;;0.40;0.40;;;;;;;5.39;79.25;99348.50;5120611;28;20570;-81
2021/12/02 05:31:33;;;;;;;0.47;0.47;;;;;;;5.33;79.13;99354.72;5142825;28;20030;-83
2021/12/02 05:34:04;;;;;;;0.65;0.65;;;;;;;5.53;79.40;99351.56;5144278;28;20048;-83
2021/12/02 05:36:38;;;;;;;0.50;0.50;;;;;;;5.40;79.01;99350.19;5140816;28;20026;-83
2021/12/02 05:39:09;;;;;;;0.47;0.47;;;;;;;5.31;78.92;99341.75;5139318;28;20177;-82
2021/12/02 05:41:40;;;;;;;0.40;0.40;;;;;;;5.54;79.26;99339.41;5141513;28;20034;-82
2021/12/02 05:44:13;;;;;;;0.65;0.65;;;;;;;5.49;78.77;99339.53;5149862;28;20038;-81
2021/12/02 05:46:43;;;;;;;0.40;0.40;;;;;;;5.24;77.97;99337.63;5167892;28;20033;-82
2021/12/02 05:49:14;;;;;;;0.50;0.50;;;;;;;5.35;78.45;99345.97;5141245;28;20040;-82
2021/12/02 05:51:47;;;;;;;0.50;0.50;;;;;;;5.25;78.11;99336.69;5126497;28;20488;-81
2021/12/02 05:54:17;;;;;;;0.45;0.45;;;;;;;5.40;78.91;99335.44;5148846;28;20057;-81
2021/12/02 05:56:48;;;;;;;0.47;0.47;;;;;;;5.29;78.22;99338.34;5140380;28;20062;-80
2021/12/02 05:59:18;;;;;;;0.40;0.40;;;;;;;5.18;78.28;99342.97;5141077;28;20088;-81
2021/12/02 06:01:49;;;;;;;0.40;0.40;;;;;;;5.19;78.44;99344.69;5158430;28;20493;-80
2021/12/02 06:04:19;;;;;;;0.40;0.40;;;;;;;5.30;78.27;99353.06;5155618;28;20119;-80
2021/12/02 06:06:50;;;;;;;0.40;0.40;;;;;;;5.20;78.74;99359.38;5132940;28;20490;-80
2021/12/02 06:09:21;;;;;;;0.60;0.60;;;;;;;5.13;77.77;99360.44;5134480;28;20062;-81
2021/12/02 06:11:51;;;;;;;0.40;0.40;;;;;;;5.27;78.17;99363.53;5136295;28;20553;-80
2021/12/02 06:14:22;;;;;;;0.50;0.50;;;;;;;5.32;78.10;99369.47;5125963;28;20035;-82
2021/12/02 06:16:53;;;;;;;0.50;0.50;;;;;;;5.18;76.96;99369.84;5138130;28;20128;-82
2021/12/02 06:19:23;;;;;;;0.77;0.77;;;;;;;5.34;78.43;99375.47;5135533;28;20069;-83
2021/12/02 06:21:55;;;;;;;0.60;0.60;;;;;;;5.29;78.09;99377.34;5163246;28;20057;-81
2021/12/02 06:24:42;;;;;;;0.50;0.50;;;;;;;5.36;78.20;99372.84;5147700;28;20671;-80
2021/12/02 06:27:14;;;;;;;0.75;0.75;;;;;;;5.33;77.97;99378.97;5171119;28;20046;-81
2021/12/02 06:29:44;;;;;;;1.00;0.95;;;;;;;5.31;77.82;99388.56;5139320;28;20043;-82
2021/12/02 06:32:15;;;;;;;0.50;0.50;;;;;;;5.35;77.82;99392.78;5139747;28;20062;-83
2021/12/02 06:34:45;;;;;;;0.60;0.60;;;;;;;5.30;77.98;99389.47;5130370;28;20034;-81
2021/12/02 06:37:16;;;;;;;0.47;0.47;;;;;;;5.30;77.54;99388.59;5166002;28;20026;-83
2021/12/02 06:39:46;;;;;;;0.98;0.98;;;;;;;5.19;77.45;99396.69;5169993;28;20397;-83
2021/12/02 06:42:17;;;;;;;0.40;0.40;;;;;;;5.12;78.77;99392.53;5169800;28;20038;-83
2021/12/02 06:44:48;;;;;;;0.40;0.40;;;;;;;5.26;78.50;99402.59;5150194;28;20077;-84
2021/12/02 06:47:23;;;;;;;0.40;0.40;;;;;;;5.13;78.22;99404.66;5132220;28;20053;-85
2021/12/02 06:49:56;;;;;;;0.40;0.40;;;;;;;5.28;78.43;99406.84;5135062;28;20034;-82
2021/12/02 06:52:27;;;;;;;0.50;0.50;;;;;;;5.26;77.94;99411.22;5161941;28;20034;-82
2021/12/02 06:54:58;;;;;;;0.43;0.43;;;;;;;5.32;77.38;99405.88;5205667;28;20064;-84
2021/12/02 06:57:30;;;;;;;0.50;0.50;;;;;;;5.27;77.83;99414.69;5168322;28;20023;-84
2021/12/02 07:00:07;;;;;;;0.40;0.40;;;;;;;5.24;77.71;99418.25;5135412;28;20049;-83
2021/12/02 07:02:39;;;;;;;0.50;0.50;;;;;;;5.21;77.84;99418.31;5174495;28;20149;-84
2021/12/02 07:05:12;;;;;;;0.75;0.75;;;;;;;5.09;78.31;99421.22;5156836;28;20045;-83
2021/12/02 07:07:43;;;;;;;0.50;0.50;;;;;;;4.95;76.48;99414.63;5166348;28;20031;-82
2021/12/02 07:10:20;;;;;;;0.40;0.40;;;;;;;4.99;77.59;99421.47;5164814;28;20102;-82
2021/12/02 07:12:55;;;;;;;0.40;0.40;;;;;;;5.08;76.95;99429.94;5186733;28;20049;-81
2021/12/02 07:17:59;;;;;;;0.80;0.80;;;;;;;4.85;76.74;99434.78;5168911;28;20030;-82
2021/12/02 07:20:34;;;;;;;0.85;0.85;;;;;;;4.88;77.24;99441.66;5134467;28;20192;-81
2021/12/02 07:23:05;;;;;;;0.50;0.50;;;;;;;4.81;76.00;99440.09;5161970;28;20030;-81
2021/12/02 07:25:39;;;;;;;2.85;1.35;;;;;;;4.93;77.07;99442.41;5134487;28;20064;-82
2021/12/02 07:28:11;;;;;;;0.50;0.50;;;;;;;4.85;77.44;99439.13;5157825;28;20065;-83
2021/12/02 07:30:47;;;;;;;0.50;0.50;;;;;;;4.90;77.39;99450.28;5145012;28;20046;-83
2021/12/02 07:33:19;;;;;;;0.50;0.50;;;;;;;4.89;77.06;99456.38;5164710;28;20034;-84
2021/12/02 07:35:50;;;;;;;0.40;0.40;;;;;;;4.97;78.40;99459.63;5128761;28;20050;-83
2021/12/02 07:38:21;;;;;;;0.50;0.50;;;;;;;4.78;76.87;99459.22;5166461;28;20041;-82
2021/12/02 07:40:52;;;;;;;0.75;0.75;;;;;;;4.92;77.32;99465.84;5149384;28;20038;-81
2021/12/02 07:43:23;;;;;;;0.40;0.40;;;;;;;4.93;76.72;99475.34;5151750;28;20485;-84
2021/12/02 07:45:55;;;;;;;0.93;0.93;;;;;;;4.99;77.32;99475.19;5132946;28;20505;-81
2021/12/02 07:48:26;;;;;;;0.57;0.57;;;;;;;4.84;77.02;99479.00;5120917;28;20186;-81
2021/12/02 07:51:07;;;;;;;0.70;0.70;;;;;;;4.91;75.87;99480.59;5161234;28;20096;-83
2021/12/02 07:53:46;;;;;;;1.00;1.00;;;;;;;4.82;77.05;99481.63;5133479;28;20026;-83
2021/12/02 07:56:22;;;;;;;0.40;0.40;;;;;;;4.84;77.27;99479.88;5150232;28;20030;-81
2021/12/02 07:58:52;;;;;;;0.50;0.50;;;;;;;4.96;77.49;99481.31;5126923;28;23333;-81
2021/12/02 08:01:23;;;;;;;0.98;0.98;;;;;;;4.93;76.40;99499.56;5154464;28;20106;-81
2021/12/02 08:03:53;;;;;;;0.52;0.52;;;;;;;4.89;76.45;99487.56;5145612;28;20038;-81
2021/12/02 08:06:24;;;;;;;0.43;0.43;;;;;;;4.92;77.31;99492.66;5131456;28;20026;-80
2021/12/02 08:08:55;;;;;;;1.85;1.15;;;;;;;4.98;78.24;99497.75;5157294;28;20034;-81
2021/12/02 08:11:26;;;;;;;0.45;0.45;;;;;;;5.00;77.96;99505.50;5156824;28;20034;-80
2021/12/02 08:13:59;;;;;;;3.55;1.50;;;;;;;4.99;77.41;99509.84;5127141;28;20045;-81
2021/12/02 08:16:30;;;;;;;1.10;1.10;;;;;;;4.96;77.85;99515.13;5148194;28;20037;-81
2021/12/02 08:19:01;;;;;;;0.60;0.60;;;;;;;5.06;77.31;99515.75;5163149;28;20031;-81
2021/12/02 08:21:32;;;;;;;1.40;1.30;;;;;;;5.00;77.35;99521.94;5146398;28;20037;-80
2021/12/02 08:24:03;;;;;;;0.50;0.50;;;;;;;5.11;77.33;99523.44;5158825;28;20492;-80
2021/12/02 08:26:34;;;;;;;0.40;0.40;;;;;;;5.11;77.71;99526.03;5127402;28;20056;-80
2021/12/02 08:29:06;;;;;;;0.75;0.75;;;;;;;5.03;77.82;99532.28;5141364;28;20129;-80
2021/12/02 08:31:37;;;;;;;0.50;0.50;;;;;;;5.03;77.19;99541.84;5157154;28;20124;-80
2021/12/02 08:34:07;;;;;;;0.40;0.40;;;;;;;4.71;77.41;99543.41;5142160;28;20033;-80
2021/12/02 08:36:52;;;;;;;0.40;0.40;;;;;;;4.96;77.26;99546.31;5127234;28;20462;-81
2021/12/02 08:39:26;;;;;;;0.43;0.43;;;;;;;5.04;77.49;99549.59;5158688;28;20039;-81
2021/12/02 08:41:57;;;;;;;2.15;1.25;;;;;;;5.03;77.23;99553.06;5133840;28;20068;-81
2021/12/02 08:44:31;;;;;;;1.60;1.50;;;;;;;5.00;76.66;99555.72;5122676;28;20050;-80
2021/12/02 08:47:03;;;;;;;0.50;0.50;;;;;;;4.83;77.67;99550.09;5127396;28;20045;-81
2021/12/02 08:49:34;;;;;;;0.93;0.93;;;;;;;4.63;78.18;99556.56;5149055;28;20063;-80
2021/12/02 08:52:05;;;;;;;0.40;0.40;;;;;;;4.75;78.37;99552.84;5129168;28;20309;-82
2021/12/02 08:54:36;;;;;;;0.40;0.40;;;;;;;4.76;78.85;99562.34;5200400;28;20045;-79
2021/12/02 08:57:07;;;;;;;0.40;0.40;;;;;;;4.79;78.16;99564.03;5124668;28;20676;-82
2021/12/02 08:59:43;;;;;;;0.75;0.75;;;;;;;4.94;77.58;99574.06;5137523;28;20046;-81
2021/12/02 09:02:14;;;;;;;0.73;0.73;;;;;;;4.93;78.44;99571.53;5136856;28;20445;-82
2021/12/02 09:04:45;;;;;;;0.50;0.50;;;;;;;4.99;78.08;99576.56;5145959;28;20762;-80
2021/12/02 09:07:16;;;;;;;0.57;0.57;;;;;;;4.74;77.53;99577.13;5157203;28;20062;-82
2021/12/02 09:09:46;;;;;;;2.55;1.35;;;;;;;4.68;78.38;99570.31;5129602;28;20140;-82
2021/12/02 09:12:17;;;;;;;1.17;1.08;;;;;;;4.93;78.58;99579.31;5161623;28;20058;-81
2021/12/02 09:14:48;;;;;;;0.70;0.70;;;;;;;4.86;78.33;99586.38;5145791;28;20046;-80
2021/12/02 09:17:18;;;;;;;0.70;0.70;;;;;;;4.85;78.63;99589.88;5163177;28;20034;-81
2021/12/02 09:19:49;;;;;;;0.50;0.50;;;;;;;4.91;78.09;99589.75;5161518;28;20523;-79
2021/12/02 09:22:20;;;;;;;0.60;0.60;;;;;;;4.81;77.98;99602.09;5149176;28;20026;-81
2021/12/02 09:24:50;;;;;;;0.65;0.65;;;;;;;4.79;78.08;99598.69;5169545;28;20033;-79
2021/12/02 09:27:21;;;;;;;0.90;0.73;;;;;;;4.90;77.69;99588.03;5129320;28;20412;-80
2021/12/02 09:29:51;;;;;;;0.50;0.50;;;;;;;4.96;77.86;99593.09;5139988;28;20101;-80
2021/12/02 09:32:22;;;;;;;0.50;0.50;;;;;;;5.06;77.81;99598.94;5124285;28;20034;-80
2021/12/02 09:34:53;;;;;;;0.50;0.50;;;;;;;5.04;77.18;99596.38;5130208;28;20136;-80
2021/12/02 09:37:23;;;;;;;0.60;0.60;;;;;;;5.06;77.79;99596.34;5167017;28;20100;-82
2021/12/02 09:39:54;;;;;;;0.80;0.80;;;;;;;4.90;77.91;99611.44;5163264;28;20066;-81
2021/12/02 09:42:26;;;;;;;0.40;0.40;;;;;;;5.08;77.39;99609.31;5131062;28;20018;-82
2021/12/02 09:45:00;;;;;;;0.43;0.43;;;;;;;4.96;77.93;99613.06;5151029;28;20030;-83
2021/12/02 09:47:34;;;;;;;0.40;0.40;;;;;;;4.99;77.65;99619.03;5136509;28;20111;-81
2021/12/02 09:50:11;;;;;;;;;;;;;;;4.95;77.97;99626.94;5165532;28;20038;-79
2021/12/02 09:52:44;;;;;;;0.50;0.50;;;;;;;4.88;78.26;99626.22;5164342;28;20424;-80
2021/12/02 09:55:30;;;;;;;0.50;0.50;;;;;;;4.66;76.84;99621.47;5147977;28;20522;-79
2021/12/02 09:58:04;;;;;;;0.40;0.40;;;;;;;4.93;77.42;99619.16;5151579;28;20030;-80
2021/12/02 10:00:38;;;;;;;0.73;0.73;;;;;;;4.67;77.47;99628.34;5158259;28;20448;-80
2021/12/02 10:03:45;;;;;;;0.70;0.70;;;;;;;4.77;77.81;99631.63;5126509;28;20027;-79
2021/12/02 10:06:08;;;;;;;0.50;0.50;;;;;;;4.91;77.02;99636.56;5138071;28;20121;-82
2021/12/02 10:08:51;;;;;;;0.50;0.50;;;;;;;4.79;76.95;99629.00;5127277;28;20102;-80
2021/12/02 10:11:40;;;;;;;0.70;0.70;;;;;;;4.78;75.97;99625.56;5149152;28;20064;-80
2021/12/02 10:14:46;;;;;;;0.52;0.52;;;;;;;4.72;77.04;99626.53;5157034;28;20042;-79
2021/12/02 10:25:47;;;;;;;1.30;1.20;;;;;;;5.01;76.56;99637.19;5164938;28;20038;-79
2021/12/02 10:28:19;;;;;;;2.72;1.65;;;;;;;4.73;76.25;99641.25;5150085;28;20018;-80
2021/12/02 10:30:54;;;;;;;0.77;0.77;;;;;;;4.79;76.82;99635.06;5139931;28;20453;-79
2021/12/02 10:33:38;;;;;;;2.05;1.60;;;;;;;4.81;77.32;99645.41;5166261;28;20057;-79
2021/12/02 10:36:24;;;;;;;0.50;0.50;;;;;;;4.91;76.94;99640.88;5161986;28;20050;-79
2021/12/02 10:39:08;;;;;;;0.50;0.50;;;;;;;4.99;77.62;99628.56;5121978;28;20044;-78
2021/12/02 10:41:44;;;;;;;1.40;1.30;;;;;;;4.81;77.85;99632.44;5163979;28;20019;-79
2021/12/02 10:44:19;;;;;;;0.55;0.55;;;;;;;4.95;77.95;99642.53;5150246;28;20065;-79
2021/12/02 10:46:53;;;;;;;0.40;0.40;;;;;;;4.96;77.21;99634.69;5165092;28;20030;-79
2021/12/02 10:49:25;;;;;;;0.50;0.50;;;;;;;5.00;77.14;99641.53;5136239;28;20035;-78
2021/12/02 10:51:58;;;;;;;0.50;0.50;;;;;;;4.97;75.95;99652.00;5154109;28;20022;-79
2021/12/02 10:54:35;;;;;;;0.85;0.85;;;;;;;4.87;75.92;99650.47;5154758;28;20045;-80
2021/12/02 10:57:18;;;;;;;0.40;0.40;;;;;;;5.01;76.96;99648.44;5173293;28;20034;-79
2021/12/02 10:59:50;;;;;;;0.50;0.50;;;;;;;4.95;77.31;99647.75;5158602;28;20053;-79
2021/12/02 11:02:29;;;;;;;0.50;0.50;;;;;;;5.03;77.36;99657.06;5146705;28;20474;-80
2021/12/02 11:05:08;;;;;;;1.13;1.13;;;;;;;5.18;77.33;99650.69;5152446;28;20072;-80
2021/12/02 11:07:41;;;;;;;0.52;0.52;;;;;;;5.18;76.56;99658.50;5150065;28;20031;-79
2021/12/02 11:10:15;;;;;;;0.50;0.50;;;;;;;5.17;76.84;99653.31;5133089;28;20551;-80
2021/12/02 11:12:48;;;;;;;;;;;;;;;5.09;75.50;99647.41;5132700;28;20054;-80
2021/12/02 11:15:22;;;;;;;0.50;0.50;;;;;;;4.97;75.71;99652.00;5165460;28;19945;-78
2021/12/02 11:17:58;;;;;;;0.47;0.47;;;;;;;5.01;76.50;99645.00;5160102;28;20041;-81
2021/12/02 11:20:30;;;;;;;0.63;0.63;;;;;;;5.01;75.90;99651.03;5133406;28;20038;-79
2021/12/02 11:23:14;;;;;;;0.57;0.57;;;;;;;4.94;75.58;99646.88;5166249;28;20265;-78
2021/12/02 11:25:56;;;;;;;0.40;0.40;;;;;;;4.73;75.35;99643.84;5140776;28;20050;-79
2021/12/02 11:28:29;;;;;;;0.50;0.50;;;;;;;4.79;75.80;99644.59;5168488;28;20058;-81
2021/12/02 11:31:09;;;;;;;0.50;0.50;;;;;;;5.02;76.33;99646.72;5152163;28;20026;-80
2021/12/02 11:33:42;;;;;;;7.18;1.42;;;;;;;4.94;76.04;99640.81;5171985;28;20305;-77
2021/12/02 11:36:19;;;;;;;0.80;0.80;;;;;;;4.98;75.92;99645.94;5172539;28;20077;-77
2021/12/02 11:38:58;;;;;;;0.40;0.40;;;;;;;4.93;74.71;99649.50;5156155;28;20038;-79
2021/12/02 11:41:30;;;;;;;0.60;0.60;;;;;;;5.01;75.64;99653.63;5132743;28;20141;-80
2021/12/02 11:44:02;;;;;;;0.53;0.53;;;;;;;5.03;75.23;99654.47;5160020;28;20033;-80
2021/12/02 11:46:34;;;;;;;0.50;0.50;;;;;;;4.93;74.41;99659.91;5141830;28;20038;-82
2021/12/02 11:49:05;;;;;;;1.00;1.00;;;;;;;5.06;74.84;99670.91;5135740;28;20049;-80
2021/12/02 11:51:37;;;;;;;0.40;0.40;;;;;;;5.02;74.26;99670.13;5139373;28;20104;-80
2021/12/02 11:54:09;;;;;;;0.60;0.60;;;;;;;4.91;74.11;99672.94;5141049;28;20037;-81
2021/12/02 11:56:40;;;;;;;0.40;0.40;;;;;;;5.00;73.14;99672.72;5135084;28;20677;-79
2021/12/02 11:59:10;;;;;;;0.40;0.40;;;;;;;5.08;74.47;99679.53;5132127;28;20058;-80
2021/12/02 12:01:43;;;;;;;0.40;0.40;;;;;;;4.85;74.04;99684.31;5132779;28;20505;-80
2021/12/02 12:04:14;;;;;;;0.40;0.40;;;;;;;4.76;73.14;99681.03;5161865;28;20629;-82
2021/12/02 12:06:54;;;;;;;0.40;0.40;;;;;;;4.97;73.35;99678.00;5156047;28;20073;-81
2021/12/02 12:09:25;;;;;;;0.50;0.50;;;;;;;4.76;73.36;99673.22;5146751;28;20041;-80
2021/12/02 12:11:56;;;;;;;0.60;0.60;;;;;;;4.86;74.04;99678.22;5134603;28;20076;-79
2021/12/02 12:14:43;;;;;;;0.50;0.50;;;;;;;4.85;74.59;99673.03;5137371;28;20038;-81
2021/12/02 12:17:15;;;;;;;0.40;0.40;;;;;;;5.08;74.74;99679.53;5174238;28;20019;-81
2021/12/02 12:19:51;;;;;;;1.17;0.82;;;;;;;5.11;75.00;99675.13;5159697;28;20041;-78
2021/12/02 12:22:27;;;;;;;0.43;0.43;;;;;;;4.92;73.56;99682.44;5129842;28;20118;-81
2021/12/02 12:25:06;;;;;;;0.55;0.55;;;;;;;4.98;74.66;99695.31;5150731;28;20080;-81
2021/12/02 12:27:39;;;;;;;0.68;0.68;;;;;;;4.91;73.91;99696.34;5134112;28;20697;-81
2021/12/02 12:30:11;;;;;;;0.50;0.50;;;;;;;5.12;74.56;99699.38;5122163;28;20132;-79
2021/12/02 12:35:35;;;;;;;0.70;0.70;;;;;;;5.00;74.55;99710.88;5149190;28;20412;-81
2021/12/02 12:38:33;;;;;;;2.10;1.60;;;;;;;5.07;74.52;99714.22;5146550;28;20631;-79